sensor_id;sensor_type;location;lat;lon;timestamp;P1;durP1;ratioP1;P2;durP2;ratioP2
26253;SDS011;53339;51.378;0.094;2023-02-15T00:02:19;40.72;;;21.35;;
26253;SDS011;53339;51.378;0.094;2023-02-15T00:05:02;52.08;;;23.45;;
26253;SDS011;53339;51.378;0.094;2023-02-15T00:08:15;46.00;;;22.75;;
26253;SDS011;53339;51.378;0.094;2023-02-15T00:11:12;48.00;;;20.17;;
26253;SDS011;53339;51.378;0.094;2023-02-15T00:14:45;32.05;;;17.77;;
26253;SDS011;53339;51.378;0.094;2023-02-15T00:17:42;45.78;;;22.67;;
26253;SDS011;53339;51.378;0.094;2023-02-15T00:23:28;35.20;;;16.05;;
26253;SDS011;53339;51.378;0.094;2023-02-15T00:26:47;44.35;;;20.08;;
26253;SDS011;53339;51.378;0.094;2023-02-15T00:29:19;50.85;;;20.52;;
26253;SDS011;53339;51.378;0.094;2023-02-15T00:32:00;50.22;;;21.65;;
26253;SDS011;53339;51.378;0.094;2023-02-15T00:35:12;45.72;;;21.55;;
26253;SDS011;53339;51.378;0.094;2023-02-15T00:37:53;46.45;;;25.08;;
26253;SDS011;53339;51.378;0.094;2023-02-15T00:40:44;44.03;;;20.10;;
26253;SDS011;53339;51.378;0.094;2023-02-15T00:43:57;37.88;;;20.05;;
26253;SDS011;53339;51.378;0.094;2023-02-15T00:46:47;48.70;;;20.98;;
26253;SDS011;53339;51.378;0.094;2023-02-15T00:49:30;47.60;;;20.00;;
26253;SDS011;53339;51.378;0.094;2023-02-15T00:52:46;41.67;;;15.82;;
26253;SDS011;53339;51.378;0.094;2023-02-15T00:55:36;23.90;;;12.10;;
26253;SDS011;53339;51.378;0.094;2023-02-15T00:58:32;46.83;;;21.60;;
26253;SDS011;53339;51.378;0.094;2023-02-15T01:01:08;48.15;;;22.00;;
26253;SDS011;53339;51.378;0.094;2023-02-15T01:03:53;39.33;;;17.85;;
26253;SDS011;53339;51.378;0.094;2023-02-15T01:07:05;49.05;;;29.38;;
26253;SDS011;53339;51.378;0.094;2023-02-15T01:09:34;49.95;;;20.92;;
26253;SDS011;53339;51.378;0.094;2023-02-15T01:12:48;50.30;;;22.85;;
26253;SDS011;53339;51.378;0.094;2023-02-15T01:15:35;36.30;;;19.42;;
26253;SDS011;53339;51.378;0.094;2023-02-15T01:18:11;54.03;;;22.85;;
26253;SDS011;53339;51.378;0.094;2023-02-15T01:21:11;47.28;;;21.52;;
26253;SDS011;53339;51.378;0.094;2023-02-15T01:24:02;40.42;;;19.48;;
26253;SDS011;53339;51.378;0.094;2023-02-15T01:26:50;51.20;;;22.25;;
26253;SDS011;53339;51.378;0.094;2023-02-15T01:29:48;51.50;;;29.00;;
26253;SDS011;53339;51.378;0.094;2023-02-15T01:32:56;35.85;;;21.60;;
26253;SDS011;53339;51.378;0.094;2023-02-15T01:35:25;34.40;;;18.90;;
26253;SDS011;53339;51.378;0.094;2023-02-15T01:38:23;48.95;;;27.52;;
26253;SDS011;53339;51.378;0.094;2023-02-15T01:41:20;47.30;;;22.08;;
26253;SDS011;53339;51.378;0.094;2023-02-15T01:47:57;55.15;;;26.77;;
26253;SDS011;53339;51.378;0.094;2023-02-15T01:51:12;48.47;;;21.42;;
26253;SDS011;53339;51.378;0.094;2023-02-15T01:57:45;55.42;;;22.85;;
26253;SDS011;53339;51.378;0.094;2023-02-15T02:00:46;54.65;;;26.58;;
26253;SDS011;53339;51.378;0.094;2023-02-15T02:07:10;35.30;;;16.45;;
26253;SDS011;53339;51.378;0.094;2023-02-15T02:10:09;48.13;;;21.02;;
26253;SDS011;53339;51.378;0.094;2023-02-15T02:37:22;29.35;;;18.30;;
26253;SDS011;53339;51.378;0.094;2023-02-15T02:45:51;32.63;;;17.80;;
26253;SDS011;53339;51.378;0.094;2023-02-15T02:48:20;52.67;;;22.00;;
26253;SDS011;53339;51.378;0.094;2023-02-15T02:51:17;54.53;;;26.85;;
26253;SDS011;53339;51.378;0.094;2023-02-15T02:54:10;35.20;;;21.00;;
26253;SDS011;53339;51.378;0.094;2023-02-15T03:00:57;55.78;;;23.73;;
26253;SDS011;53339;51.378;0.094;2023-02-15T03:04:38;34.10;;;15.85;;
26253;SDS011;53339;51.378;0.094;2023-02-15T03:08:02;53.25;;;22.70;;
26253;SDS011;53339;51.378;0.094;2023-02-15T03:13:55;46.30;;;20.55;;
26253;SDS011;53339;51.378;0.094;2023-02-15T03:16:47;51.25;;;24.40;;
26253;SDS011;53339;51.378;0.094;2023-02-15T03:20:01;58.63;;;25.73;;
26253;SDS011;53339;51.378;0.094;2023-02-15T03:22:48;50.15;;;19.90;;
26253;SDS011;53339;51.378;0.094;2023-02-15T03:26:03;40.40;;;20.90;;
26253;SDS011;53339;51.378;0.094;2023-02-15T03:29:10;66.35;;;31.88;;
26253;SDS011;53339;51.378;0.094;2023-02-15T03:32:35;63.55;;;26.15;;
26253;SDS011;53339;51.378;0.094;2023-02-15T03:35:33;45.15;;;20.67;;
26253;SDS011;53339;51.378;0.094;2023-02-15T03:39:11;65.25;;;31.60;;
26253;SDS011;53339;51.378;0.094;2023-02-15T03:42:39;68.88;;;32.80;;
26253;SDS011;53339;51.378;0.094;2023-02-15T03:46:31;59.72;;;30.10;;
26253;SDS011;53339;51.378;0.094;2023-02-15T03:49:42;69.50;;;32.83;;
26253;SDS011;53339;51.378;0.094;2023-02-15T03:53:05;73.25;;;33.80;;
26253;SDS011;53339;51.378;0.094;2023-02-15T03:56:11;64.97;;;31.05;;
26253;SDS011;53339;51.378;0.094;2023-02-15T03:59:08;74.53;;;34.50;;
26253;SDS011;53339;51.378;0.094;2023-02-15T04:02:24;64.28;;;26.92;;
26253;SDS011;53339;51.378;0.094;2023-02-15T04:05:19;66.72;;;25.08;;
26253;SDS011;53339;51.378;0.094;2023-02-15T04:08:23;70.93;;;34.45;;
26253;SDS011;53339;51.378;0.094;2023-02-15T04:11:35;80.18;;;33.42;;
26253;SDS011;53339;51.378;0.094;2023-02-15T04:14:31;69.50;;;28.80;;
26253;SDS011;53339;51.378;0.094;2023-02-15T04:17:52;75.95;;;31.13;;
26253;SDS011;53339;51.378;0.094;2023-02-15T04:20:53;76.72;;;31.45;;
26253;SDS011;53339;51.378;0.094;2023-02-15T04:24:14;64.13;;;23.23;;
26253;SDS011;53339;51.378;0.094;2023-02-15T04:27:25;51.17;;;24.63;;
26253;SDS011;53339;51.378;0.094;2023-02-15T04:30:40;69.28;;;35.83;;
26253;SDS011;53339;51.378;0.094;2023-02-15T04:33:36;54.30;;;25.98;;
26253;SDS011;53339;51.378;0.094;2023-02-15T04:36:23;67.55;;;31.45;;
26253;SDS011;53339;51.378;0.094;2023-02-15T04:39:21;70.65;;;33.47;;
26253;SDS011;53339;51.378;0.094;2023-02-15T04:42:30;70.18;;;31.25;;
26253;SDS011;53339;51.378;0.094;2023-02-15T04:45:53;69.78;;;33.70;;
26253;SDS011;53339;51.378;0.094;2023-02-15T04:49:12;64.13;;;29.73;;
26253;SDS011;53339;51.378;0.094;2023-02-15T04:52:16;82.28;;;36.15;;
26253;SDS011;53339;51.378;0.094;2023-02-15T04:54:57;52.95;;;27.48;;
26253;SDS011;53339;51.378;0.094;2023-02-15T04:58:05;68.18;;;27.77;;
26253;SDS011;53339;51.378;0.094;2023-02-15T05:00:49;70.97;;;29.27;;
26253;SDS011;53339;51.378;0.094;2023-02-15T05:04:11;75.45;;;30.83;;
26253;SDS011;53339;51.378;0.094;2023-02-15T05:07:17;62.70;;;26.90;;
26253;SDS011;53339;51.378;0.094;2023-02-15T05:09:51;65.43;;;30.80;;
26253;SDS011;53339;51.378;0.094;2023-02-15T05:12:37;84.88;;;33.42;;
26253;SDS011;53339;51.378;0.094;2023-02-15T05:15:20;69.72;;;31.08;;
26253;SDS011;53339;51.378;0.094;2023-02-15T05:17:52;78.75;;;35.28;;
26253;SDS011;53339;51.378;0.094;2023-02-15T05:20:48;77.00;;;37.83;;
26253;SDS011;53339;51.378;0.094;2023-02-15T05:24:40;62.03;;;25.48;;
26253;SDS011;53339;51.378;0.094;2023-02-15T05:27:50;71.85;;;29.63;;
26253;SDS011;53339;51.378;0.094;2023-02-15T05:31:05;71.60;;;31.90;;
26253;SDS011;53339;51.378;0.094;2023-02-15T05:34:10;69.60;;;27.73;;
26253;SDS011;53339;51.378;0.094;2023-02-15T05:37:35;64.63;;;28.83;;
26253;SDS011;53339;51.378;0.094;2023-02-15T05:40:26;72.22;;;30.38;;
26253;SDS011;53339;51.378;0.094;2023-02-15T05:43:10;70.53;;;27.80;;
26253;SDS011;53339;51.378;0.094;2023-02-15T05:45:40;73.78;;;30.25;;
26253;SDS011;53339;51.378;0.094;2023-02-15T05:48:40;71.28;;;31.08;;
26253;SDS011;53339;51.378;0.094;2023-02-15T05:51:53;63.03;;;26.45;;
26253;SDS011;53339;51.378;0.094;2023-02-15T05:54:53;64.20;;;27.60;;
26253;SDS011;53339;51.378;0.094;2023-02-15T06:04:04;66.90;;;32.35;;
26253;SDS011;53339;51.378;0.094;2023-02-15T06:06:57;62.22;;;30.02;;
26253;SDS011;53339;51.378;0.094;2023-02-15T06:09:52;77.70;;;36.17;;
26253;SDS011;53339;51.378;0.094;2023-02-15T06:12:56;63.63;;;32.58;;
26253;SDS011;53339;51.378;0.094;2023-02-15T06:15:46;69.60;;;28.55;;
26253;SDS011;53339;51.378;0.094;2023-02-15T06:18:32;68.93;;;32.58;;
26253;SDS011;53339;51.378;0.094;2023-02-15T06:21:30;72.13;;;32.83;;
26253;SDS011;53339;51.378;0.094;2023-02-15T06:24:30;69.30;;;32.35;;
26253;SDS011;53339;51.378;0.094;2023-02-15T06:27:18;60.22;;;27.92;;
26253;SDS011;53339;51.378;0.094;2023-02-15T06:30:14;67.68;;;32.00;;
26253;SDS011;53339;51.378;0.094;2023-02-15T06:36:36;57.13;;;24.08;;
26253;SDS011;53339;51.378;0.094;2023-02-15T06:39:22;68.75;;;30.55;;
26253;SDS011;53339;51.378;0.094;2023-02-15T06:42:07;63.47;;;31.17;;
26253;SDS011;53339;51.378;0.094;2023-02-15T06:45:19;57.28;;;28.88;;
26253;SDS011;53339;51.378;0.094;2023-02-15T06:48:00;68.35;;;29.13;;
26253;SDS011;53339;51.378;0.094;2023-02-15T06:50:59;68.03;;;28.88;;
26253;SDS011;53339;51.378;0.094;2023-02-15T06:56:36;53.53;;;26.58;;
26253;SDS011;53339;51.378;0.094;2023-02-15T06:59:32;68.20;;;30.85;;
26253;SDS011;53339;51.378;0.094;2023-02-15T07:02:18;58.10;;;28.33;;
26253;SDS011;53339;51.378;0.094;2023-02-15T07:05:14;42.80;;;21.50;;
26253;SDS011;53339;51.378;0.094;2023-02-15T07:08:06;65.32;;;27.85;;
26253;SDS011;53339;51.378;0.094;2023-02-15T07:11:13;65.38;;;27.60;;
26253;SDS011;53339;51.378;0.094;2023-02-15T07:14:27;59.00;;;25.83;;
26253;SDS011;53339;51.378;0.094;2023-02-15T07:17:15;55.58;;;24.70;;
26253;SDS011;53339;51.378;0.094;2023-02-15T07:20:38;68.55;;;32.85;;
26253;SDS011;53339;51.378;0.094;2023-02-15T07:23:27;39.92;;;19.17;;
26253;SDS011;53339;51.378;0.094;2023-02-15T07:26:46;43.00;;;19.25;;
26253;SDS011;53339;51.378;0.094;2023-02-15T07:29:41;67.80;;;32.80;;
26253;SDS011;53339;51.378;0.094;2023-02-15T07:32:33;62.15;;;32.40;;
26253;SDS011;53339;51.378;0.094;2023-02-15T07:35:56;53.33;;;27.23;;
26253;SDS011;53339;51.378;0.094;2023-02-15T07:38:49;71.78;;;33.63;;
26253;SDS011;53339;51.378;0.094;2023-02-15T07:41:31;67.13;;;33.80;;
26253;SDS011;53339;51.378;0.094;2023-02-15T07:44:19;69.10;;;32.92;;
26253;SDS011;53339;51.378;0.094;2023-02-15T07:47:26;70.78;;;33.28;;
26253;SDS011;53339;51.378;0.094;2023-02-15T07:50:15;69.03;;;32.38;;
26253;SDS011;53339;51.378;0.094;2023-02-15T07:53:09;66.43;;;29.48;;
26253;SDS011;53339;51.378;0.094;2023-02-15T07:56:36;69.97;;;33.45;;
26253;SDS011;53339;51.378;0.094;2023-02-15T07:59:15;68.25;;;28.23;;
26253;SDS011;53339;51.378;0.094;2023-02-15T08:02:29;77.22;;;29.85;;
26253;SDS011;53339;51.378;0.094;2023-02-15T08:05:17;65.70;;;31.63;;
26253;SDS011;53339;51.378;0.094;2023-02-15T08:08:11;61.78;;;26.55;;
26253;SDS011;53339;51.378;0.094;2023-02-15T08:11:50;62.05;;;24.85;;
26253;SDS011;53339;51.378;0.094;2023-02-15T08:15:04;62.17;;;28.95;;
26253;SDS011;53339;51.378;0.094;2023-02-15T08:18:16;57.15;;;25.20;;
26253;SDS011;53339;51.378;0.094;2023-02-15T08:21:07;58.65;;;28.95;;
26253;SDS011;53339;51.378;0.094;2023-02-15T08:23:49;58.13;;;28.75;;
26253;SDS011;53339;51.378;0.094;2023-02-15T08:26:56;57.95;;;27.15;;
26253;SDS011;53339;51.378;0.094;2023-02-15T08:30:49;54.42;;;25.77;;
26253;SDS011;53339;51.378;0.094;2023-02-15T08:33:46;46.97;;;23.00;;
26253;SDS011;53339;51.378;0.094;2023-02-15T08:36:34;52.60;;;21.73;;
26253;SDS011;53339;51.378;0.094;2023-02-15T08:39:33;47.72;;;22.48;;
26253;SDS011;53339;51.378;0.094;2023-02-15T08:42:42;49.75;;;25.20;;
26253;SDS011;53339;51.378;0.094;2023-02-15T08:45:43;52.97;;;25.02;;
26253;SDS011;53339;51.378;0.094;2023-02-15T08:48:33;51.38;;;24.80;;
26253;SDS011;53339;51.378;0.094;2023-02-15T08:51:52;50.60;;;27.17;;
26253;SDS011;53339;51.378;0.094;2023-02-15T08:54:48;48.97;;;24.75;;
26253;SDS011;53339;51.378;0.094;2023-02-15T08:57:45;48.85;;;26.75;;
26253;SDS011;53339;51.378;0.094;2023-02-15T09:00:53;48.65;;;24.17;;
26253;SDS011;53339;51.378;0.094;2023-02-15T09:03:58;49.45;;;25.85;;
26253;SDS011;53339;51.378;0.094;2023-02-15T09:06:55;44.83;;;25.00;;
26253;SDS011;53339;51.378;0.094;2023-02-15T09:09:49;43.70;;;23.38;;
26253;SDS011;53339;51.378;0.094;2023-02-15T09:13:48;48.97;;;22.40;;
26253;SDS011;53339;51.378;0.094;2023-02-15T09:16:37;52.00;;;27.83;;
26253;SDS011;53339;51.378;0.094;2023-02-15T09:20:04;50.03;;;25.63;;
26253;SDS011;53339;51.378;0.094;2023-02-15T09:22:59;47.75;;;19.52;;
26253;SDS011;53339;51.378;0.094;2023-02-15T09:26:23;50.72;;;25.85;;
26253;SDS011;53339;51.378;0.094;2023-02-15T09:29:20;41.85;;;23.00;;
26253;SDS011;53339;51.378;0.094;2023-02-15T09:33:19;50.75;;;22.80;;
26253;SDS011;53339;51.378;0.094;2023-02-15T09:39:44;32.13;;;16.73;;
26253;SDS011;53339;51.378;0.094;2023-02-15T09:42:52;35.95;;;18.55;;
26253;SDS011;53339;51.378;0.094;2023-02-15T09:46:10;35.88;;;18.17;;
26253;SDS011;53339;51.378;0.094;2023-02-15T09:49:48;38.40;;;19.90;;
26253;SDS011;53339;51.378;0.094;2023-02-15T09:56:28;30.30;;;14.88;;
26253;SDS011;53339;51.378;0.094;2023-02-15T09:59:21;32.13;;;19.23;;
26253;SDS011;53339;51.378;0.094;2023-02-15T10:05:58;34.50;;;19.17;;
26253;SDS011;53339;51.378;0.094;2023-02-15T10:26:08;34.67;;;20.38;;
26253;SDS011;53339;51.378;0.094;2023-02-15T10:29:57;26.88;;;16.60;;
26253;SDS011;53339;51.378;0.094;2023-02-15T10:51:32;25.15;;;14.02;;
26253;SDS011;53339;51.378;0.094;2023-02-15T11:01:40;25.58;;;15.38;;
26253;SDS011;53339;51.378;0.094;2023-02-15T11:04:32;28.40;;;14.68;;
26253;SDS011;53339;51.378;0.094;2023-02-15T11:07:47;23.63;;;12.23;;
26253;SDS011;53339;51.378;0.094;2023-02-15T11:10:35;24.83;;;13.15;;
26253;SDS011;53339;51.378;0.094;2023-02-15T11:14:02;23.60;;;12.40;;
26253;SDS011;53339;51.378;0.094;2023-02-15T11:17:13;23.40;;;13.68;;
26253;SDS011;53339;51.378;0.094;2023-02-15T11:20:14;26.73;;;12.10;;
26253;SDS011;53339;51.378;0.094;2023-02-15T11:23:44;24.13;;;15.93;;
26253;SDS011;53339;51.378;0.094;2023-02-15T11:30:53;24.00;;;14.80;;
26253;SDS011;53339;51.378;0.094;2023-02-15T11:34:12;24.27;;;14.30;;
26253;SDS011;53339;51.378;0.094;2023-02-15T11:37:30;20.70;;;10.88;;
26253;SDS011;53339;51.378;0.094;2023-02-15T11:41:07;20.35;;;9.57;;
26253;SDS011;53339;51.378;0.094;2023-02-15T11:44:31;24.50;;;13.55;;
26253;SDS011;53339;51.378;0.094;2023-02-15T11:48:21;19.42;;;10.55;;
26253;SDS011;53339;51.378;0.094;2023-02-15T11:51:40;20.42;;;11.18;;
26253;SDS011;53339;51.378;0.094;2023-02-15T11:54:25;20.48;;;12.07;;
26253;SDS011;53339;51.378;0.094;2023-02-15T12:00:46;20.33;;;10.13;;
26253;SDS011;53339;51.378;0.094;2023-02-15T12:10:41;21.63;;;14.07;;
26253;SDS011;53339;51.378;0.094;2023-02-15T12:13:57;18.98;;;9.85;;
26253;SDS011;53339;51.378;0.094;2023-02-15T12:16:55;18.65;;;12.50;;
26253;SDS011;53339;51.378;0.094;2023-02-15T12:23:40;18.33;;;12.07;;
26253;SDS011;53339;51.378;0.094;2023-02-15T12:26:55;19.88;;;9.90;;
26253;SDS011;53339;51.378;0.094;2023-02-15T12:36:44;17.27;;;11.38;;
26253;SDS011;53339;51.378;0.094;2023-02-15T12:39:51;19.08;;;12.75;;
26253;SDS011;53339;51.378;0.094;2023-02-15T12:49:25;16.95;;;7.88;;
26253;SDS011;53339;51.378;0.094;2023-02-15T12:52:27;19.65;;;11.70;;
26253;SDS011;53339;51.378;0.094;2023-02-15T12:59:05;18.58;;;9.82;;
26253;SDS011;53339;51.378;0.094;2023-02-15T13:01:57;19.55;;;8.65;;
26253;SDS011;53339;51.378;0.094;2023-02-15T13:08:20;14.85;;;9.00;;
26253;SDS011;53339;51.378;0.094;2023-02-15T13:11:44;12.70;;;6.22;;
26253;SDS011;53339;51.378;0.094;2023-02-15T13:14:31;17.13;;;11.15;;
26253;SDS011;53339;51.378;0.094;2023-02-15T13:17:21;12.98;;;8.80;;
26253;SDS011;53339;51.378;0.094;2023-02-15T13:20:18;12.00;;;6.88;;
26253;SDS011;53339;51.378;0.094;2023-02-15T13:23:49;15.30;;;9.50;;
26253;SDS011;53339;51.378;0.094;2023-02-15T13:26:41;15.20;;;9.57;;
26253;SDS011;53339;51.378;0.094;2023-02-15T13:29:54;15.60;;;8.88;;
26253;SDS011;53339;51.378;0.094;2023-02-15T13:32:48;14.68;;;8.88;;
26253;SDS011;53339;51.378;0.094;2023-02-15T13:35:50;18.90;;;7.25;;
26253;SDS011;53339;51.378;0.094;2023-02-15T13:39:41;14.98;;;9.32;;
26253;SDS011;53339;51.378;0.094;2023-02-15T13:49:47;13.35;;;7.85;;
26253;SDS011;53339;51.378;0.094;2023-02-15T14:10:46;14.75;;;8.13;;
26253;SDS011;53339;51.378;0.094;2023-02-15T14:22:59;12.65;;;8.45;;
26253;SDS011;53339;51.378;0.094;2023-02-15T14:25:55;11.15;;;5.97;;
26253;SDS011;53339;51.378;0.094;2023-02-15T14:28:41;13.82;;;8.15;;
26253;SDS011;53339;51.378;0.094;2023-02-15T14:32:11;14.77;;;7.68;;
26253;SDS011;53339;51.378;0.094;2023-02-15T14:35:20;13.80;;;7.75;;
26253;SDS011;53339;51.378;0.094;2023-02-15T14:41:04;13.77;;;6.15;;
26253;SDS011;53339;51.378;0.094;2023-02-15T14:47:26;11.43;;;6.00;;
26253;SDS011;53339;51.378;0.094;2023-02-15T14:50:57;11.07;;;5.93;;
26253;SDS011;53339;51.378;0.094;2023-02-15T14:53:38;10.00;;;4.75;;
26253;SDS011;53339;51.378;0.094;2023-02-15T14:56:17;10.23;;;5.18;;
26253;SDS011;53339;51.378;0.094;2023-02-15T15:05:10;13.23;;;5.82;;
26253;SDS011;53339;51.378;0.094;2023-02-15T15:08:05;12.77;;;6.50;;
26253;SDS011;53339;51.378;0.094;2023-02-15T15:10:54;14.98;;;6.32;;
26253;SDS011;53339;51.378;0.094;2023-02-15T15:13:36;12.80;;;5.45;;
26253;SDS011;53339;51.378;0.094;2023-02-15T15:26:38;11.65;;;5.97;;
26253;SDS011;53339;51.378;0.094;2023-02-15T15:29:42;12.77;;;7.60;;
26253;SDS011;53339;51.378;0.094;2023-02-15T15:32:27;14.13;;;5.93;;
26253;SDS011;53339;51.378;0.094;2023-02-15T15:35:13;11.85;;;4.90;;
26253;SDS011;53339;51.378;0.094;2023-02-15T15:45:03;10.70;;;3.95;;
26253;SDS011;53339;51.378;0.094;2023-02-15T15:48:29;12.02;;;8.60;;
26253;SDS011;53339;51.378;0.094;2023-02-15T15:51:20;9.88;;;4.15;;
26253;SDS011;53339;51.378;0.094;2023-02-15T15:54:40;12.68;;;4.80;;
26253;SDS011;53339;51.378;0.094;2023-02-15T15:57:32;12.68;;;5.78;;
26253;SDS011;53339;51.378;0.094;2023-02-15T16:01:07;13.38;;;7.25;;
26253;SDS011;53339;51.378;0.094;2023-02-15T16:04:02;14.60;;;7.85;;
26253;SDS011;53339;51.378;0.094;2023-02-15T16:06:55;14.52;;;5.95;;
26253;SDS011;53339;51.378;0.094;2023-02-15T16:10:20;16.67;;;5.93;;
26253;SDS011;53339;51.378;0.094;2023-02-15T16:13:11;12.02;;;5.35;;
26253;SDS011;53339;51.378;0.094;2023-02-15T16:16:00;11.48;;;5.57;;
26253;SDS011;53339;51.378;0.094;2023-02-15T16:19:16;10.48;;;6.93;;
26253;SDS011;53339;51.378;0.094;2023-02-15T16:22:24;14.10;;;5.97;;
26253;SDS011;53339;51.378;0.094;2023-02-15T16:28:22;11.55;;;7.63;;
26253;SDS011;53339;51.378;0.094;2023-02-15T16:31:26;12.68;;;6.05;;
26253;SDS011;53339;51.378;0.094;2023-02-15T16:34:20;15.20;;;7.25;;
26253;SDS011;53339;51.378;0.094;2023-02-15T16:37:17;12.63;;;6.88;;
26253;SDS011;53339;51.378;0.094;2023-02-15T16:40:03;14.52;;;7.22;;
26253;SDS011;53339;51.378;0.094;2023-02-15T16:43:18;13.40;;;6.70;;
26253;SDS011;53339;51.378;0.094;2023-02-15T16:49:51;14.05;;;8.05;;
26253;SDS011;53339;51.378;0.094;2023-02-15T16:52:50;14.52;;;8.60;;
26253;SDS011;53339;51.378;0.094;2023-02-15T16:55:55;13.15;;;7.43;;
26253;SDS011;53339;51.378;0.094;2023-02-15T16:58:55;17.13;;;6.15;;
26253;SDS011;53339;51.378;0.094;2023-02-15T17:01:37;13.18;;;6.35;;
26253;SDS011;53339;51.378;0.094;2023-02-15T17:16:50;16.25;;;6.90;;
26253;SDS011;53339;51.378;0.094;2023-02-15T17:20:01;13.65;;;6.30;;
26253;SDS011;53339;51.378;0.094;2023-02-15T17:22:39;12.10;;;6.75;;
26253;SDS011;53339;51.378;0.094;2023-02-15T17:25:48;16.98;;;9.50;;
26253;SDS011;53339;51.378;0.094;2023-02-15T17:28:49;17.00;;;8.75;;
26253;SDS011;53339;51.378;0.094;2023-02-15T17:31:48;18.90;;;10.55;;
26253;SDS011;53339;51.378;0.094;2023-02-15T17:34:46;14.38;;;6.90;;
26253;SDS011;53339;51.378;0.094;2023-02-15T17:37:49;15.35;;;6.05;;
26253;SDS011;53339;51.378;0.094;2023-02-15T17:40:37;12.70;;;5.82;;
26253;SDS011;53339;51.378;0.094;2023-02-15T17:43:26;14.23;;;6.70;;
26253;SDS011;53339;51.378;0.094;2023-02-15T17:46:04;15.02;;;10.40;;
26253;SDS011;53339;51.378;0.094;2023-02-15T17:49:02;16.08;;;8.90;;
26253;SDS011;53339;51.378;0.094;2023-02-15T17:52:33;16.67;;;7.07;;
26253;SDS011;53339;51.378;0.094;2023-02-15T17:55:07;15.15;;;9.77;;
26253;SDS011;53339;51.378;0.094;2023-02-15T18:01:53;14.13;;;8.93;;
26253;SDS011;53339;51.378;0.094;2023-02-15T18:05:26;15.77;;;8.18;;
26253;SDS011;53339;51.378;0.094;2023-02-15T18:08:44;15.15;;;7.60;;
26253;SDS011;53339;51.378;0.094;2023-02-15T18:11:47;14.82;;;10.00;;
26253;SDS011;53339;51.378;0.094;2023-02-15T18:14:41;14.35;;;9.70;;
26253;SDS011;53339;51.378;0.094;2023-02-15T18:17:49;14.32;;;10.18;;
26253;SDS011;53339;51.378;0.094;2023-02-15T18:20:45;16.02;;;9.38;;
26253;SDS011;53339;51.378;0.094;2023-02-15T18:23:44;15.48;;;9.25;;
26253;SDS011;53339;51.378;0.094;2023-02-15T18:26:36;18.20;;;7.20;;
26253;SDS011;53339;51.378;0.094;2023-02-15T18:29:38;13.52;;;7.07;;
26253;SDS011;53339;51.378;0.094;2023-02-15T18:32:44;16.15;;;9.07;;
26253;SDS011;53339;51.378;0.094;2023-02-15T18:35:35;17.40;;;9.85;;
26253;SDS011;53339;51.378;0.094;2023-02-15T18:38:21;17.20;;;10.30;;
26253;SDS011;53339;51.378;0.094;2023-02-15T18:41:17;15.25;;;7.57;;
26253;SDS011;53339;51.378;0.094;2023-02-15T18:44:10;15.38;;;10.02;;
26253;SDS011;53339;51.378;0.094;2023-02-15T18:46:43;16.35;;;10.60;;
26253;SDS011;53339;51.378;0.094;2023-02-15T18:53:23;16.00;;;10.95;;
26253;SDS011;53339;51.378;0.094;2023-02-15T18:56:16;18.08;;;11.25;;
26253;SDS011;53339;51.378;0.094;2023-02-15T18:59:02;15.23;;;8.38;;
26253;SDS011;53339;51.378;0.094;2023-02-15T19:01:57;16.67;;;10.40;;
26253;SDS011;53339;51.378;0.094;2023-02-15T19:04:50;16.27;;;9.18;;
26253;SDS011;53339;51.378;0.094;2023-02-15T19:08:23;14.82;;;7.57;;
26253;SDS011;53339;51.378;0.094;2023-02-15T19:11:31;19.83;;;8.52;;
26253;SDS011;53339;51.378;0.094;2023-02-15T19:14:40;21.27;;;13.18;;
26253;SDS011;53339;51.378;0.094;2023-02-15T19:17:39;21.95;;;12.25;;
26253;SDS011;53339;51.378;0.094;2023-02-15T19:20:29;19.30;;;10.93;;
26253;SDS011;53339;51.378;0.094;2023-02-15T19:23:25;19.42;;;12.20;;
26253;SDS011;53339;51.378;0.094;2023-02-15T19:26:30;17.73;;;11.30;;
26253;SDS011;53339;51.378;0.094;2023-02-15T19:29:46;22.50;;;11.15;;
26253;SDS011;53339;51.378;0.094;2023-02-15T19:32:44;21.10;;;12.63;;
26253;SDS011;53339;51.378;0.094;2023-02-15T19:35:52;17.52;;;8.80;;
26253;SDS011;53339;51.378;0.094;2023-02-15T19:38:59;19.52;;;11.80;;
26253;SDS011;53339;51.378;0.094;2023-02-15T19:41:44;21.02;;;10.48;;
26253;SDS011;53339;51.378;0.094;2023-02-15T19:44:38;18.70;;;10.05;;
26253;SDS011;53339;51.378;0.094;2023-02-15T19:47:42;25.02;;;13.30;;
26253;SDS011;53339;51.378;0.094;2023-02-15T19:50:30;25.67;;;13.30;;
26253;SDS011;53339;51.378;0.094;2023-02-15T19:53:21;18.40;;;9.82;;
26253;SDS011;53339;51.378;0.094;2023-02-15T19:56:02;16.70;;;8.60;;
26253;SDS011;53339;51.378;0.094;2023-02-15T19:59:21;23.70;;;14.35;;
26253;SDS011;53339;51.378;0.094;2023-02-15T20:02:46;20.45;;;11.40;;
26253;SDS011;53339;51.378;0.094;2023-02-15T20:05:44;23.20;;;13.52;;
26253;SDS011;53339;51.378;0.094;2023-02-15T20:09:19;21.50;;;13.57;;
26253;SDS011;53339;51.378;0.094;2023-02-15T20:12:20;23.80;;;11.10;;
26253;SDS011;53339;51.378;0.094;2023-02-15T20:18:27;23.52;;;10.45;;
26253;SDS011;53339;51.378;0.094;2023-02-15T20:21:48;16.73;;;9.38;;
26253;SDS011;53339;51.378;0.094;2023-02-15T20:24:53;17.33;;;10.23;;
26253;SDS011;53339;51.378;0.094;2023-02-15T20:27:41;24.45;;;10.85;;
26253;SDS011;53339;51.378;0.094;2023-02-15T20:30:29;28.58;;;13.85;;
26253;SDS011;53339;51.378;0.094;2023-02-15T20:33:23;26.25;;;14.35;;
26253;SDS011;53339;51.378;0.094;2023-02-15T20:36:16;20.42;;;11.52;;
26253;SDS011;53339;51.378;0.094;2023-02-15T20:39:15;20.70;;;11.63;;
26253;SDS011;53339;51.378;0.094;2023-02-15T20:41:59;27.95;;;14.27;;
26253;SDS011;53339;51.378;0.094;2023-02-15T20:44:47;26.63;;;14.32;;
26253;SDS011;53339;51.378;0.094;2023-02-15T20:47:54;27.00;;;13.13;;
26253;SDS011;53339;51.378;0.094;2023-02-15T20:50:40;24.45;;;13.88;;
26253;SDS011;53339;51.378;0.094;2023-02-15T20:53:56;23.52;;;14.70;;
26253;SDS011;53339;51.378;0.094;2023-02-15T20:56:58;24.77;;;13.93;;
26253;SDS011;53339;51.378;0.094;2023-02-15T21:03:06;21.63;;;11.13;;
26253;SDS011;53339;51.378;0.094;2023-02-15T21:06:14;20.92;;;8.95;;
26253;SDS011;53339;51.378;0.094;2023-02-15T21:09:22;21.02;;;8.40;;
26253;SDS011;53339;51.378;0.094;2023-02-15T21:12:31;21.20;;;12.35;;
26253;SDS011;53339;51.378;0.094;2023-02-15T21:15:36;27.48;;;12.93;;
26253;SDS011;53339;51.378;0.094;2023-02-15T21:18:34;23.85;;;9.55;;
26253;SDS011;53339;51.378;0.094;2023-02-15T21:21:29;25.00;;;13.07;;
26253;SDS011;53339;51.378;0.094;2023-02-15T21:24:27;28.45;;;13.00;;
26253;SDS011;53339;51.378;0.094;2023-02-15T21:27:40;25.58;;;12.40;;
26253;SDS011;53339;51.378;0.094;2023-02-15T21:30:30;25.42;;;10.65;;
26253;SDS011;53339;51.378;0.094;2023-02-15T21:33:26;27.23;;;14.15;;
26253;SDS011;53339;51.378;0.094;2023-02-15T21:36:21;30.77;;;11.35;;
26253;SDS011;53339;51.378;0.094;2023-02-15T21:39:35;16.73;;;9.90;;
26253;SDS011;53339;51.378;0.094;2023-02-15T21:42:45;28.10;;;13.25;;
26253;SDS011;53339;51.378;0.094;2023-02-15T21:46:11;20.08;;;12.15;;
26253;SDS011;53339;51.378;0.094;2023-02-15T21:49:25;22.92;;;9.93;;
26253;SDS011;53339;51.378;0.094;2023-02-15T21:52:10;17.58;;;10.38;;
26253;SDS011;53339;51.378;0.094;2023-02-15T21:55:12;27.25;;;13.32;;
26253;SDS011;53339;51.378;0.094;2023-02-15T21:58:29;31.70;;;14.48;;
26253;SDS011;53339;51.378;0.094;2023-02-15T22:01:38;26.55;;;13.77;;